Time;durP1;ratioP1;P1;durP2;ratioP2;P2;SDS_P1;SDS_P2;PMS_P1;PMS_P2;Temp;Humidity;BMP_temperature;BMP_pressure;BME280_temperature;BME280_humidity;BME280_pressure;Samples;Min_cycle;Max_cycle;Signal;HPM_P1;HPM_P2
2023/10/05 00:02:10;;;;;;;11.47;4.33;;;12.90;99.90;;;;;;5033045;28;20557;-58
2023/10/05 00:04:45;;;;;;;10.30;3.70;;;12.90;99.90;;;;;;5033045;28;20475;-58
2023/10/05 00:07:19;;;;;;;11.30;3.83;;;12.90;99.90;;;;;;5032979;28;20431;-58
2023/10/05 00:09:46;;;;;;;8.23;3.60;;;12.90;99.90;;;;;;5032760;28;20435;-58
2023/10/05 00:12:19;;;;;;;9.77;3.77;;;12.90;99.90;;;;;;5033052;28;20463;-58
2023/10/05 00:14:48;;;;;;;8.13;3.50;;;12.80;99.90;;;;;;5032734;28;20431;-58
2023/10/05 00:17:16;;;;;;;7.47;3.60;;;12.80;99.90;;;;;;5032824;28;20519;-58
2023/10/05 00:19:43;;;;;;;10.67;3.80;;;12.80;99.90;;;;;;5033608;28;20452;-58
2023/10/05 00:22:11;;;;;;;7.87;3.57;;;12.90;99.90;;;;;;5032758;28;20482;-58
2023/10/05 00:24:40;;;;;;;9.63;3.63;;;12.90;99.90;;;;;;5032578;28;20950;-58
2023/10/05 00:27:08;;;;;;;5.40;3.40;;;12.90;99.90;;;;;;5033770;28;20481;-58
2023/10/05 00:29:41;;;;;;;7.30;3.77;;;12.90;99.90;;;;;;5037068;28;20448;-59
2023/10/05 00:32:14;;;;;;;6.43;3.10;;;12.90;99.90;;;;;;5036586;28;20471;-59
2023/10/05 00:34:42;;;;;;;11.37;3.13;;;12.90;99.90;;;;;;5037043;28;20432;-59
2023/10/05 00:37:10;;;;;;;12.70;3.90;;;12.90;99.90;;;;;;5036310;28;20482;-57
2023/10/05 00:39:39;;;;;;;6.63;2.90;;;12.90;99.90;;;;;;5036610;28;20478;-57
2023/10/05 00:42:10;;;;;;;12.53;3.87;;;12.90;99.90;;;;;;5036511;28;20475;-58
2023/10/05 00:44:41;;;;;;;6.03;2.50;;;12.90;99.90;;;;;;5037460;28;20454;-58
2023/10/05 00:47:12;;;;;;;8.67;3.07;;;12.90;99.90;;;;;;5037109;28;20427;-58
2023/10/05 00:49:51;;;;;;;7.33;3.13;;;12.90;99.90;;;;;;5036936;28;20427;-58
2023/10/05 00:52:24;;;;;;;3.47;2.60;;;12.90;99.90;;;;;;5036562;28;20548;-58
2023/10/05 00:54:56;;;;;;;4.50;2.67;;;12.90;99.90;;;;;;5036633;28;20456;-58
2023/10/05 00:57:24;;;;;;;6.67;2.83;;;13.00;99.90;;;;;;5036509;28;20489;-58
2023/10/05 01:00:09;;;;;;;7.67;3.60;;;13.00;99.90;;;;;;5036252;28;20453;-59
2023/10/05 01:02:38;;;;;;;6.30;3.60;;;13.00;99.90;;;;;;5036310;28;20539;-58
2023/10/05 01:05:15;;;;;;;4.20;3.03;;;13.10;99.90;;;;;;5036182;28;20523;-58
2023/10/05 01:07:49;;;;;;;10.00;2.83;;;13.10;99.90;;;;;;5036350;28;20428;-58
2023/10/05 01:10:22;;;;;;;7.87;3.10;;;13.10;99.90;;;;;;5036253;28;20431;-58
2023/10/05 01:12:50;;;;;;;9.60;3.60;;;13.10;99.90;;;;;;5036424;28;20467;-58
2023/10/05 01:15:19;;;;;;;8.87;3.10;;;13.20;99.90;;;;;;5036243;28;20474;-58
2023/10/05 01:17:51;;;;;;;9.47;3.60;;;13.20;99.90;;;;;;5036031;28;20499;-58
2023/10/05 01:20:26;;;;;;;4.47;2.60;;;13.20;99.90;;;;;;5035799;28;20440;-58
2023/10/05 01:22:57;;;;;;;7.53;2.40;;;13.30;99.90;;;;;;5036274;28;20551;-58
2023/10/05 01:25:27;;;;;;;8.73;2.83;;;13.30;99.90;;;;;;5036696;28;20793;-58
2023/10/05 01:27:54;;;;;;;6.10;2.80;;;13.30;99.90;;;;;;5035975;28;20443;-58
2023/10/05 01:30:22;;;;;;;8.77;4.10;;;13.30;99.90;;;;;;5035816;28;20442;-58
2023/10/05 01:32:49;;;;;;;5.60;2.20;;;13.30;99.90;;;;;;5035671;28;20491;-58
2023/10/05 01:35:18;;;;;;;10.20;3.10;;;13.30;99.90;;;;;;5036075;28;20540;-58
2023/10/05 01:37:47;;;;;;;6.37;2.63;;;13.40;99.90;;;;;;5035706;28;20476;-58
2023/10/05 01:40:20;;;;;;;12.63;3.63;;;13.40;99.90;;;;;;5035057;28;20463;-59
2023/10/05 01:42:51;;;;;;;10.20;4.07;;;13.40;99.90;;;;;;5035345;28;21017;-59
2023/10/05 01:45:24;;;;;;;7.87;2.77;;;13.50;99.90;;;;;;5035728;28;20482;-58
2023/10/05 01:47:51;;;;;;;5.20;3.03;;;13.40;99.90;;;;;;5035499;28;20970;-58
2023/10/05 01:50:20;;;;;;;3.73;2.67;;;13.50;99.90;;;;;;5035628;28;20824;-58
2023/10/05 01:52:55;;;;;;;6.33;3.10;;;13.50;99.90;;;;;;5035196;28;20472;-60
2023/10/05 01:55:24;;;;;;;8.17;3.07;;;13.50;99.90;;;;;;5035518;28;20429;-59
2023/10/05 01:57:53;;;;;;;7.80;3.27;;;13.50;99.90;;;;;;5035253;28;20486;-59
2023/10/05 02:00:23;;;;;;;5.80;2.83;;;13.60;99.90;;;;;;5035370;28;20456;-59
2023/10/05 02:02:50;;;;;;;6.93;2.80;;;13.60;99.90;;;;;;5035202;28;20978;-59
2023/10/05 02:05:19;;;;;;;7.13;3.13;;;13.60;99.90;;;;;;5035007;28;20543;-59
2023/10/05 02:07:49;;;;;;;4.30;2.60;;;13.60;99.90;;;;;;5035594;28;20441;-59
2023/10/05 02:10:19;;;;;;;8.80;3.03;;;13.60;99.90;;;;;;5035178;28;20499;-59
2023/10/05 02:12:49;;;;;;;5.33;3.03;;;13.60;99.90;;;;;;5035130;28;20465;-58
2023/10/05 02:15:17;;;;;;;12.70;3.93;;;13.70;99.90;;;;;;5035230;28;20444;-58
2023/10/05 02:17:46;;;;;;;9.03;4.37;;;13.70;99.90;;;;;;5035039;28;20483;-58
2023/10/05 02:20:38;;;;;;;5.37;3.50;;;13.70;99.90;;;;;;5035062;28;20532;-58
2023/10/05 02:23:16;;;;;;;9.60;4.07;;;13.70;99.90;;;;;;5035180;28;20432;-58
2023/10/05 02:25:44;;;;;;;7.23;3.50;;;13.70;99.90;;;;;;5036432;28;20512;-58
2023/10/05 02:28:25;;;;;;;5.50;3.80;;;13.70;99.90;;;;;;5040704;28;20476;-58
2023/10/05 02:30:54;;;;;;;14.40;4.07;;;13.70;99.90;;;;;;5038027;28;20449;-58
2023/10/05 02:33:27;;;;;;;13.57;4.20;;;13.80;99.90;;;;;;5058125;22;20512;-63
2023/10/05 02:36:03;;;;;;;8.37;3.77;;;13.80;99.90;;;;;;5035097;28;20429;-63
2023/10/05 02:38:30;;;;;;;8.97;4.07;;;13.80;99.90;;;;;;5034921;28;20503;-64
2023/10/05 02:41:04;;;;;;;10.53;4.00;;;13.80;99.90;;;;;;5035094;28;20497;-61
2023/10/05 02:43:38;;;;;;;7.23;3.33;;;13.80;99.90;;;;;;5034758;28;20478;-63
2023/10/05 02:46:10;;;;;;;7.23;3.70;;;13.80;99.90;;;;;;5034281;28;20852;-63
2023/10/05 02:48:41;;;;;;;6.53;3.70;;;13.80;99.90;;;;;;5034662;28;20429;-64
2023/10/05 02:51:10;;;;;;;9.37;3.90;;;13.80;99.90;;;;;;5033268;28;20519;-63
2023/10/05 02:53:41;;;;;;;6.77;3.90;;;13.90;99.90;;;;;;5034401;28;20556;-63
2023/10/05 02:56:27;;;;;;;8.47;3.53;;;13.90;99.90;;;;;;5034741;28;20760;-63
2023/10/05 02:58:55;;;;;;;6.33;3.17;;;13.90;99.90;;;;;;5034120;28;20474;-63
2023/10/05 03:01:23;;;;;;;5.27;3.20;;;13.90;99.90;;;;;;5034232;28;20445;-63
2023/10/05 03:03:51;;;;;;;7.63;3.53;;;13.90;99.90;;;;;;5034259;28;20444;-61
2023/10/05 03:06:18;;;;;;;10.80;3.63;;;13.90;99.90;;;;;;5034518;28;20440;-61
2023/10/05 03:08:48;;;;;;;5.47;2.90;;;14.00;99.90;;;;;;5035081;28;20441;-61
2023/10/05 03:11:15;;;;;;;6.90;3.30;;;14.00;99.90;;;;;;5034274;28;20425;-62
2023/10/05 03:13:42;;;;;;;9.93;3.70;;;14.00;99.90;;;;;;5034472;28;20452;-62
2023/10/05 03:16:11;;;;;;;10.37;3.70;;;14.00;99.90;;;;;;5034590;28;20448;-62
2023/10/05 03:18:42;;;;;;;7.63;3.63;;;14.00;99.90;;;;;;5033791;28;20998;-61
2023/10/05 03:21:12;;;;;;;6.90;3.40;;;14.00;99.90;;;;;;5035769;28;20429;-62
2023/10/05 03:23:40;;;;;;;7.07;3.50;;;14.00;99.90;;;;;;5035092;28;20441;-62
2023/10/05 03:26:08;;;;;;;8.13;3.07;;;14.10;99.90;;;;;;5035140;28;20497;-62
2023/10/05 03:28:35;;;;;;;6.40;3.50;;;14.10;99.90;;;;;;5033841;28;20973;-62
2023/10/05 03:31:07;;;;;;;9.43;4.20;;;14.10;99.90;;;;;;5033824;28;20448;-62
2023/10/05 03:33:35;;;;;;;6.30;3.20;;;14.10;99.90;;;;;;5033299;28;20479;-62
2023/10/05 03:36:06;;;;;;;5.30;3.70;;;14.10;99.90;;;;;;5033746;28;20922;-62
2023/10/05 03:38:35;;;;;;;8.10;4.00;;;14.00;99.90;;;;;;5033725;28;20472;-63
2023/10/05 03:41:04;;;;;;;9.00;4.20;;;14.10;99.90;;;;;;5033660;28;20543;-63
2023/10/05 03:43:32;;;;;;;6.70;3.87;;;14.10;99.90;;;;;;5033889;28;20564;-62
2023/10/05 03:46:07;;;;;;;11.27;3.17;;;14.10;99.90;;;;;;5033581;28;20894;-62
2023/10/05 03:48:38;;;;;;;7.70;3.10;;;14.00;99.90;;;;;;5033477;28;20420;-62
2023/10/05 03:51:15;;;;;;;6.97;3.03;;;14.10;99.90;;;;;;5033666;28;20433;-62
2023/10/05 03:53:46;;;;;;;6.33;3.17;;;14.10;99.90;;;;;;5033442;28;20425;-62
2023/10/05 03:56:13;;;;;;;7.70;3.97;;;14.10;99.90;;;;;;5033675;28;20435;-63
2023/10/05 03:58:40;;;;;;;10.40;3.73;;;14.10;99.90;;;;;;5033442;28;20484;-62
2023/10/05 04:01:10;;;;;;;9.30;3.80;;;14.00;99.90;;;;;;5055945;22;21607;-57
2023/10/05 04:03:38;;;;;;;5.73;3.70;;;14.00;99.90;;;;;;5032531;28;20965;-57
2023/10/05 04:06:16;;;;;;;7.80;4.00;;;14.00;99.90;;;;;;5033145;28;20499;-58
2023/10/05 04:12:20;;;;;;;7.37;3.83;;;13.90;99.90;;;;;;5132094;27;20980;-60
2023/10/05 04:14:46;;;;;;;5.50;3.60;;;13.90;99.90;;;;;;5131503;27;20440;-60
2023/10/05 04:17:19;;;;;;;11.10;4.70;;;13.90;99.90;;;;;;5131306;27;20440;-60
2023/10/05 04:19:46;;;;;;;11.47;4.40;;;13.90;99.90;;;;;;5131517;27;20432;-60
2023/10/05 04:22:14;;;;;;;10.40;4.47;;;13.80;99.90;;;;;;5131127;27;20456;-60
2023/10/05 04:24:41;;;;;;;5.87;4.10;;;13.80;99.90;;;;;;5131058;27;20443;-60
2023/10/05 04:27:08;;;;;;;9.27;4.77;;;13.80;99.90;;;;;;5130788;27;20936;-60
2023/10/05 04:29:37;;;;;;;8.30;4.50;;;13.70;99.90;;;;;;5131198;27;20436;-60
2023/10/05 04:32:06;;;;;;;9.80;5.20;;;13.70;99.90;;;;;;5131019;27;20518;-60
2023/10/05 04:34:33;;;;;;;9.37;5.07;;;13.70;99.90;;;;;;5131239;27;20589;-59
2023/10/05 04:37:00;;;;;;;12.30;5.70;;;13.60;99.90;;;;;;5131442;27;20464;-60
2023/10/05 04:39:29;;;;;;;13.70;6.77;;;13.60;99.90;;;;;;5132163;27;20808;-60
2023/10/05 04:41:56;;;;;;;9.60;5.60;;;13.60;99.90;;;;;;5131452;27;20462;-60
2023/10/05 04:44:23;;;;;;;8.67;6.13;;;13.60;99.90;;;;;;5132679;27;20516;-60
2023/10/05 04:46:52;;;;;;;10.23;6.43;;;13.50;99.90;;;;;;5133581;27;20953;-59
2023/10/05 04:49:20;;;;;;;12.63;7.73;;;13.50;99.90;;;;;;5132598;27;20440;-58
2023/10/05 04:51:47;;;;;;;11.63;6.30;;;13.40;99.90;;;;;;5131952;27;20488;-60
2023/10/05 04:54:18;;;;;;;9.20;5.80;;;13.40;99.90;;;;;;5131674;27;20461;-61
2023/10/05 04:56:53;;;;;;;9.60;6.17;;;13.30;99.90;;;;;;5132081;27;20512;-59
2023/10/05 04:59:48;;;;;;;11.00;6.90;;;13.30;99.90;;;;;;5131852;27;20446;-60
2023/10/05 05:02:21;;;;;;;12.00;5.67;;;13.30;99.90;;;;;;5134437;27;20450;-59
2023/10/05 05:05:21;;;;;;;13.37;6.23;;;13.30;99.90;;;;;;5135078;27;20497;-59
2023/10/05 05:07:49;;;;;;;8.33;6.57;;;13.30;99.90;;;;;;5131623;27;20425;-59
2023/10/05 05:10:20;;;;;;;11.93;6.77;;;13.30;99.90;;;;;;5131639;27;20489;-61
2023/10/05 05:12:47;;;;;;;13.10;7.27;;;13.30;99.90;;;;;;5135729;27;20463;-60
2023/10/05 05:15:15;;;;;;;9.67;7.17;;;13.30;99.90;;;;;;5138824;27;20444;-60
2023/10/05 05:17:44;;;;;;;10.93;8.20;;;13.30;99.90;;;;;;5139109;27;20501;-61
2023/10/05 05:20:15;;;;;;;11.10;8.03;;;13.30;99.90;;;;;;5139736;27;20444;-60
2023/10/05 05:22:46;;;;;;;8.83;7.23;;;13.30;99.90;;;;;;5132045;27;20543;-60
2023/10/05 05:25:14;;;;;;;9.73;7.80;;;13.30;99.90;;;;;;5126323;28;20462;-60
2023/10/05 05:27:41;;;;;;;12.17;8.57;;;13.30;99.90;;;;;;5120405;28;20441;-59
2023/10/05 05:30:20;;;;;;;16.33;8.30;;;13.20;99.90;;;;;;5115564;28;20440;-61
2023/10/05 05:32:49;;;;;;;8.67;7.73;;;13.20;99.90;;;;;;5116247;28;20447;-60
2023/10/05 05:35:18;;;;;;;9.20;7.20;;;13.20;99.90;;;;;;5115840;28;20849;-59
2023/10/05 05:37:46;;;;;;;10.23;7.83;;;13.20;99.90;;;;;;5116227;28;20440;-59
2023/10/05 05:40:12;;;;;;;9.33;7.30;;;13.10;99.90;;;;;;5116510;28;20475;-59
2023/10/05 05:42:40;;;;;;;11.33;8.20;;;13.10;99.90;;;;;;5115824;28;20467;-59
2023/10/05 05:45:14;;;;;;;8.53;6.97;;;13.10;99.90;;;;;;5116045;28;20505;-60
2023/10/05 05:47:41;;;;;;;10.00;7.03;;;13.10;99.90;;;;;;5116327;28;20459;-59
2023/10/05 05:50:15;;;;;;;12.13;7.90;;;13.10;99.90;;;;;;5116281;28;20459;-59
2023/10/05 05:52:42;;;;;;;12.23;7.00;;;13.10;99.90;;;;;;5115823;28;20488;-60
2023/10/05 05:55:11;;;;;;;10.83;6.57;;;13.00;99.90;;;;;;5116755;28;20448;-59
2023/10/05 05:57:38;;;;;;;9.00;7.20;;;13.10;99.90;;;;;;5115686;28;20449;-59
2023/10/05 06:00:12;;;;;;;8.07;6.77;;;13.10;99.90;;;;;;5115715;28;20444;-60
2023/10/05 06:02:40;;;;;;;11.00;6.07;;;13.10;99.90;;;;;;5115459;28;20994;-59
2023/10/05 06:05:09;;;;;;;9.07;5.10;;;13.10;99.90;;;;;;5116093;28;20449;-60
2023/10/05 06:07:38;;;;;;;5.33;4.43;;;13.10;99.90;;;;;;5115793;28;20437;-59
2023/10/05 06:10:12;;;;;;;6.97;5.17;;;13.20;99.90;;;;;;5115685;28;20452;-58
2023/10/05 06:12:39;;;;;;;9.13;4.63;;;13.20;99.90;;;;;;5115458;28;20604;-59
2023/10/05 06:15:07;;;;;;;10.60;5.57;;;13.20;99.90;;;;;;5115566;28;20945;-58
2023/10/05 06:17:35;;;;;;;8.27;4.00;;;13.30;99.90;;;;;;5116052;27;20442;-59
2023/10/05 06:20:05;;;;;;;9.03;4.50;;;13.30;99.90;;;;;;5115876;28;20432;-58
2023/10/05 06:22:34;;;;;;;11.93;4.90;;;13.30;99.90;;;;;;5117238;28;20465;-59
2023/10/05 06:25:00;;;;;;;8.73;4.40;;;13.30;99.90;;;;;;5115899;27;20852;-58
2023/10/05 06:27:27;;;;;;;6.73;3.63;;;13.40;99.90;;;;;;5115087;28;20452;-59
2023/10/05 06:29:54;;;;;;;8.63;4.10;;;13.50;99.90;;;;;;5115561;28;20444;-59
2023/10/05 06:32:21;;;;;;;6.93;3.17;;;13.60;99.90;;;;;;5115201;28;20499;-57
2023/10/05 06:34:48;;;;;;;8.67;3.60;;;13.60;99.90;;;;;;5115312;28;20452;-59
2023/10/05 06:37:15;;;;;;;6.60;3.27;;;13.60;99.90;;;;;;5114931;28;20518;-59
2023/10/05 06:39:43;;;;;;;10.57;3.30;;;13.70;99.90;;;;;;5115864;28;20477;-59
2023/10/05 06:42:11;;;;;;;6.23;3.23;;;13.70;99.90;;;;;;5115862;28;20567;-59
2023/10/05 06:44:39;;;;;;;9.30;3.87;;;13.80;99.90;;;;;;5115175;28;20878;-60
2023/10/05 06:47:06;;;;;;;7.90;3.53;;;13.80;99.90;;;;;;5115161;28;20535;-59
2023/10/05 06:49:33;;;;;;;5.60;3.53;;;13.90;99.90;;;;;;5115647;28;20441;-60
2023/10/05 06:52:01;;;;;;;4.50;3.03;;;13.90;99.90;;;;;;5114800;28;20488;-59
2023/10/05 06:54:28;;;;;;;5.57;3.30;;;14.00;99.90;;;;;;5114700;28;20444;-60
2023/10/05 06:56:56;;;;;;;6.23;3.10;;;14.10;99.90;;;;;;5114827;27;20444;-59
2023/10/05 06:59:25;;;;;;;7.60;3.80;;;14.10;99.90;;;;;;5114779;28;20611;-60
2023/10/05 07:01:52;;;;;;;7.50;3.77;;;14.20;99.90;;;;;;5114500;28;20541;-59
2023/10/05 07:04:24;;;;;;;7.00;4.30;;;14.20;99.90;;;;;;5114677;28;20513;-59
2023/10/05 07:06:51;;;;;;;6.13;4.20;;;14.30;99.90;;;;;;5115353;28;20490;-59
2023/10/05 07:09:18;;;;;;;7.27;4.77;;;14.40;99.90;;;;;;5115153;28;20455;-59
2023/10/05 07:11:45;;;;;;;6.93;5.00;;;14.40;99.90;;;;;;5114170;28;20488;-59
2023/10/05 07:14:15;;;;;;;7.17;4.90;;;14.50;99.90;;;;;;5114737;28;20452;-59
2023/10/05 07:16:42;;;;;;;8.00;5.37;;;14.50;99.90;;;;;;5114082;28;20430;-60
2023/10/05 07:19:09;;;;;;;9.63;5.10;;;14.60;99.90;;;;;;5114691;28;20437;-60
2023/10/05 07:21:36;;;;;;;7.30;5.23;;;14.60;99.90;;;;;;5114294;28;20453;-60
2023/10/05 07:24:04;;;;;;;9.07;5.67;;;14.70;99.90;;;;;;5114235;28;20437;-59
2023/10/05 07:26:31;;;;;;;6.90;5.27;;;14.80;99.90;;;;;;5114404;28;20465;-59
2023/10/05 07:28:58;;;;;;;11.93;6.10;;;14.90;99.90;;;;;;5114132;28;20818;-60
2023/10/05 07:31:26;;;;;;;8.03;6.50;;;15.10;99.90;;;;;;5114375;28;20843;-60
2023/10/05 07:33:54;;;;;;;8.10;5.83;;;15.20;99.90;;;;;;5114160;28;20442;-60
2023/10/05 07:36:20;;;;;;;9.43;5.00;;;15.30;99.90;;;;;;5113811;28;20477;-60
2023/10/05 07:38:47;;;;;;;9.40;5.60;;;15.40;99.90;;;;;;5113802;28;20451;-60
2023/10/05 07:41:14;;;;;;;12.30;6.23;;;15.40;99.90;;;;;;5113459;28;20462;-61
2023/10/05 07:43:41;;;;;;;9.47;5.70;;;15.50;99.90;;;;;;5113820;28;20441;-59
2023/10/05 07:46:09;;;;;;;10.67;6.40;;;15.50;99.90;;;;;;5113704;27;20824;-60
2023/10/05 07:48:37;;;;;;;8.20;5.73;;;15.50;99.90;;;;;;5114312;28;20444;-60
2023/10/05 07:51:04;;;;;;;8.03;5.30;;;15.50;99.90;;;;;;5114952;28;20710;-60
2023/10/05 07:53:31;;;;;;;13.10;5.60;;;15.40;99.90;;;;;;5115615;28;20573;-60
2023/10/05 07:55:58;;;;;;;9.97;6.73;;;15.40;99.90;;;;;;5116146;28;20446;-59
2023/10/05 07:58:24;;;;;;;7.20;5.50;;;15.40;99.90;;;;;;5117887;28;20437;-60
2023/10/05 08:00:51;;;;;;;9.87;5.47;;;15.40;99.90;;;;;;5118948;28;20453;-61
2023/10/05 08:03:18;;;;;;;6.47;5.57;;;15.40;99.90;;;;;;5120481;28;20445;-60
2023/10/05 08:05:46;;;;;;;12.67;5.87;;;15.50;99.90;;;;;;5118780;28;20445;-60
2023/10/05 08:08:14;;;;;;;7.07;5.50;;;15.60;99.90;;;;;;5118867;28;20799;-60
2023/10/05 08:10:41;;;;;;;9.40;5.27;;;15.70;99.90;;;;;;5115576;28;20538;-60
2023/10/05 08:13:08;;;;;;;7.77;5.53;;;15.70;99.90;;;;;;5113825;28;20482;-60
2023/10/05 08:15:35;;;;;;;10.90;5.70;;;15.70;99.90;;;;;;5114037;28;20552;-59
2023/10/05 08:18:02;;;;;;;6.90;4.40;;;15.80;99.90;;;;;;5114129;28;20514;-61
2023/10/05 08:20:29;;;;;;;7.10;4.20;;;15.80;99.90;;;;;;5113488;28;20818;-60
2023/10/05 08:22:57;;;;;;;6.20;5.00;;;15.90;99.90;;;;;;5113992;28;20554;-60
2023/10/05 08:25:24;;;;;;;7.63;4.83;;;15.90;99.90;;;;;;5113944;28;20440;-59
2023/10/05 08:27:51;;;;;;;9.97;4.70;;;16.00;99.90;;;;;;5113639;28;20443;-58
2023/10/05 08:30:18;;;;;;;8.57;4.93;;;16.10;99.90;;;;;;5113387;28;20437;-60
2023/10/05 08:32:47;;;;;;;15.20;5.00;;;16.20;99.90;;;;;;5112967;28;20920;-60
2023/10/05 08:35:14;;;;;;;7.33;3.97;;;16.30;99.90;;;;;;5113218;28;20944;-60
2023/10/05 08:37:48;;;;;;;7.57;4.60;;;16.30;99.90;;;;;;5113121;28;20447;-60
2023/10/05 08:40:37;;;;;;;9.27;4.47;;;16.40;99.90;;;;;;5113492;28;20520;-59
2023/10/05 08:43:10;;;;;;;9.37;4.33;;;16.50;99.90;;;;;;5113441;28;20462;-60
2023/10/05 08:45:46;;;;;;;6.90;4.20;;;16.50;99.90;;;;;;5113396;28;20514;-60
2023/10/05 08:48:19;;;;;;;9.23;4.40;;;16.50;99.90;;;;;;5113567;28;20451;-60
2023/10/05 08:50:50;;;;;;;7.20;4.20;;;16.50;99.90;;;;;;5112900;28;20800;-60
2023/10/05 08:53:21;;;;;;;6.67;4.27;;;16.60;99.90;;;;;;5113149;28;20974;-60
2023/10/05 08:55:51;;;;;;;9.80;3.87;;;16.60;99.90;;;;;;5113214;28;20510;-59
2023/10/05 08:58:20;;;;;;;7.03;3.90;;;16.70;99.90;;;;;;5116255;28;20480;-60
2023/10/05 09:00:48;;;;;;;6.20;3.60;;;16.80;99.90;;;;;;5117153;28;20446;-60
2023/10/05 09:06:16;;;;;;;7.93;3.60;;;16.80;99.90;;;;;;5091091;28;20575;-58
2023/10/05 09:08:53;;;;;;;6.73;3.20;;;16.70;99.60;;;;;;5091255;28;20778;-57
2023/10/05 09:11:22;;;;;;;8.33;3.57;;;16.60;99.50;;;;;;5090394;28;20471;-59
2023/10/05 09:13:49;;;;;;;4.40;3.50;;;16.70;99.80;;;;;;5090497;28;20491;-58
2023/10/05 09:16:22;;;;;;;8.80;3.73;;;16.70;99.90;;;;;;5090649;28;20448;-58
2023/10/05 09:18:50;;;;;;;6.87;3.70;;;16.70;99.90;;;;;;5090806;28;20430;-58
2023/10/05 09:21:19;;;;;;;8.23;4.03;;;16.70;99.80;;;;;;5090484;28;20508;-58
2023/10/05 09:23:47;;;;;;;4.73;3.73;;;16.70;99.80;;;;;;5089963;28;20445;-57
2023/10/05 09:26:33;;;;;;;5.73;3.50;;;16.70;99.90;;;;;;5090275;28;20531;-57
2023/10/05 09:29:20;;;;;;;7.20;4.13;;;16.70;99.90;;;;;;5090137;28;20432;-57
2023/10/05 09:31:50;;;;;;;7.87;3.70;;;16.80;99.90;;;;;;5089736;28;20504;-59
2023/10/05 09:34:20;;;;;;;6.67;3.33;;;16.90;99.70;;;;;;5089594;28;20933;-57
2023/10/05 09:36:53;;;;;;;6.83;3.77;;;16.90;99.40;;;;;;5090266;28;20437;-57
2023/10/05 09:39:24;;;;;;;7.27;3.60;;;16.90;99.20;;;;;;5090147;28;20483;-57
2023/10/05 09:41:56;;;;;;;9.00;3.40;;;16.90;99.30;;;;;;5090697;28;20469;-58
2023/10/05 09:44:28;;;;;;;6.40;3.77;;;16.90;99.20;;;;;;5089755;28;20515;-57
2023/10/05 09:46:57;;;;;;;6.63;3.40;;;17.00;99.00;;;;;;5090105;28;20517;-58
2023/10/05 09:49:24;;;;;;;5.23;3.70;;;17.00;99.20;;;;;;5090069;28;20439;-58
2023/10/05 09:51:54;;;;;;;6.03;3.47;;;17.00;98.70;;;;;;5089486;28;20454;-59
2023/10/05 09:54:22;;;;;;;8.63;3.70;;;17.10;98.70;;;;;;5089648;28;20503;-59
2023/10/05 09:56:50;;;;;;;6.33;3.27;;;17.20;98.20;;;;;;5089763;28;20531;-59
2023/10/05 09:59:19;;;;;;;5.90;3.63;;;17.20;97.90;;;;;;5089254;28;20447;-57
2023/10/05 10:01:49;;;;;;;14.20;4.00;;;17.20;97.80;;;;;;5089443;28;20885;-58
2023/10/05 10:04:34;;;;;;;5.30;3.10;;;17.30;97.80;;;;;;5089091;28;20493;-58
2023/10/05 10:07:13;;;;;;;10.63;3.50;;;17.50;97.70;;;;;;5089463;28;20539;-58
2023/10/05 10:09:41;;;;;;;5.03;3.30;;;17.70;96.90;;;;;;5089044;28;20904;-58
2023/10/05 10:12:11;;;;;;;4.60;3.00;;;17.80;96.10;;;;;;5088952;28;20458;-58
2023/10/05 10:14:41;;;;;;;7.20;3.10;;;17.80;95.60;;;;;;5088913;28;20449;-59
2023/10/05 10:17:24;;;;;;;7.27;3.10;;;17.60;95.10;;;;;;5078085;28;20454;-57
2023/10/05 10:20:04;;;;;;;4.70;3.23;;;17.60;95.40;;;;;;5075157;28;20511;-59
2023/10/05 10:22:47;;;;;;;9.50;3.63;;;17.50;95.40;;;;;;5075556;28;20466;-58
2023/10/05 10:25:31;;;;;;;7.30;3.40;;;17.50;95.50;;;;;;5075337;28;20466;-59
2023/10/05 10:28:20;;;;;;;6.97;3.10;;;17.50;95.90;;;;;;5075877;28;20431;-58
2023/10/05 10:30:48;;;;;;;7.87;3.30;;;17.60;95.80;;;;;;5075954;28;20423;-57
2023/10/05 10:33:24;;;;;;;9.30;3.53;;;17.60;95.80;;;;;;5076533;28;20443;-58
2023/10/05 10:35:51;;;;;;;6.20;2.97;;;17.60;95.70;;;;;;5076948;28;20533;-58
2023/10/05 10:38:20;;;;;;;6.10;2.73;;;17.70;95.40;;;;;;5075991;28;20442;-58
2023/10/05 10:41:07;;;;;;;6.67;3.50;;;17.80;95.30;;;;;;5076613;28;20482;-58
2023/10/05 10:43:34;;;;;;;9.00;4.70;;;17.90;95.20;;;;;;5076124;28;20423;-58
2023/10/05 10:46:06;;;;;;;3.00;2.50;;;18.00;94.70;;;;;;5075892;28;20483;-58
2023/10/05 10:48:36;;;;;;;9.53;3.13;;;18.00;94.60;;;;;;5076410;28;20429;-57
2023/10/05 10:51:10;;;;;;;7.00;3.13;;;18.10;94.30;;;;;;5075420;28;20428;-56
2023/10/05 10:53:40;;;;;;;3.67;2.40;;;18.10;93.90;;;;;;5074619;28;20936;-56
2023/10/05 10:56:20;;;;;;;6.80;3.30;;;18.10;93.80;;;;;;5075242;28;20431;-56
2023/10/05 10:58:49;;;;;;;6.60;3.13;;;18.00;93.90;;;;;;5074721;28;20757;-56
2023/10/05 11:01:28;;;;;;;4.90;3.23;;;17.90;94.00;;;;;;5074853;28;20509;-55
2023/10/05 11:03:55;;;;;;;8.90;3.10;;;17.80;94.30;;;;;;5074530;28;20451;-56
2023/10/05 11:06:23;;;;;;;6.80;3.03;;;17.80;94.60;;;;;;5074645;28;20811;-56
2023/10/05 11:08:59;;;;;;;10.63;3.30;;;17.80;94.70;;;;;;5074732;28;20465;-57
2023/10/05 11:11:26;;;;;;;8.07;3.67;;;17.70;94.70;;;;;;5075236;28;20462;-58
2023/10/05 11:13:55;;;;;;;5.03;2.87;;;17.70;94.90;;;;;;5074416;28;20803;-58
2023/10/05 11:16:26;;;;;;;5.80;2.90;;;17.70;94.90;;;;;;5074498;28;20439;-58
2023/10/05 11:18:57;;;;;;;7.40;3.23;;;17.70;94.90;;;;;;5074601;28;20431;-57
2023/10/05 11:21:26;;;;;;;5.87;2.80;;;17.70;95.10;;;;;;5074554;28;20968;-57
2023/10/05 11:23:57;;;;;;;7.73;2.80;;;17.80;95.20;;;;;;5074953;28;20542;-58
2023/10/05 11:26:33;;;;;;;5.40;2.50;;;17.80;95.20;;;;;;5074108;28;20985;-58
2023/10/05 11:29:00;;;;;;;8.90;3.30;;;17.90;95.10;;;;;;5073342;28;20466;-58
2023/10/05 11:31:27;;;;;;;7.20;3.17;;;17.90;94.90;;;;;;5074127;28;20522;-59
2023/10/05 11:33:54;;;;;;;5.93;3.27;;;18.00;95.20;;;;;;5074089;28;20451;-57
2023/10/05 11:36:27;;;;;;;8.00;2.50;;;18.00;95.10;;;;;;5074024;28;20431;-57
2023/10/05 11:38:57;;;;;;;6.77;2.90;;;18.10;94.60;;;;;;5073663;28;20889;-58
2023/10/05 11:41:25;;;;;;;6.00;2.50;;;18.00;94.20;;;;;;5073926;28;20463;-58
2023/10/05 11:43:53;;;;;;;8.87;3.17;;;17.90;94.20;;;;;;5074473;28;20446;-60
2023/10/05 11:46:26;;;;;;;6.70;2.80;;;17.90;94.50;;;;;;5073722;28;20519;-58
2023/10/05 11:48:55;;;;;;;4.07;2.57;;;17.90;94.40;;;;;;5074276;28;20519;-57
2023/10/05 11:51:27;;;;;;;6.80;3.00;;;18.00;94.30;;;;;;5073866;28;20466;-56
2023/10/05 11:53:56;;;;;;;7.30;2.77;;;18.00;94.40;;;;;;5074338;28;20464;-57
2023/10/05 11:56:30;;;;;;;5.30;2.40;;;18.00;94.00;;;;;;5073967;28;20444;-57
2023/10/05 11:58:57;;;;;;;5.70;2.53;;;18.00;94.10;;;;;;5073324;28;20500;-56
2023/10/05 12:01:24;;;;;;;4.80;2.50;;;18.00;94.30;;;;;;5073636;28;20463;-57
2023/10/05 12:03:51;;;;;;;5.53;2.63;;;18.10;94.20;;;;;;5073275;28;20444;-58
2023/10/05 12:06:23;;;;;;;9.00;3.37;;;18.20;94.10;;;;;;5073143;28;20837;-58
2023/10/05 12:08:53;;;;;;;6.90;2.70;;;18.20;93.80;;;;;;5073599;28;20510;-58
2023/10/05 12:11:23;;;;;;;6.43;3.30;;;18.10;93.90;;;;;;5073314;28;20466;-57
2023/10/05 12:13:55;;;;;;;5.20;3.00;;;18.10;94.10;;;;;;5073139;28;20921;-57
2023/10/05 12:16:22;;;;;;;7.50;2.70;;;17.90;94.20;;;;;;5073245;28;20424;-58
2023/10/05 12:18:51;;;;;;;6.43;2.87;;;17.80;94.30;;;;;;5072870;28;20788;-58
2023/10/05 12:21:18;;;;;;;4.63;2.80;;;17.80;94.60;;;;;;5073966;28;20462;-58
2023/10/05 12:23:45;;;;;;;6.20;2.50;;;17.70;94.80;;;;;;5073023;28;20447;-55
2023/10/05 12:26:12;;;;;;;4.90;2.60;;;17.70;94.90;;;;;;5073220;28;20478;-56
2023/10/05 12:28:41;;;;;;;6.47;2.90;;;17.70;95.00;;;;;;5074157;28;20526;-57
2023/10/05 12:31:09;;;;;;;3.77;2.60;;;17.70;95.20;;;;;;5072921;28;20463;-56
2023/10/05 12:33:36;;;;;;;8.57;3.27;;;17.60;95.40;;;;;;5073697;28;20446;-57
2023/10/05 12:36:08;;;;;;;5.10;2.60;;;17.70;95.60;;;;;;5073100;28;20439;-57
2023/10/05 12:38:35;;;;;;;6.07;3.00;;;17.90;95.60;;;;;;5072687;28;20430;-57
2023/10/05 12:41:12;;;;;;;9.17;3.03;;;18.10;95.30;;;;;;5072716;28;20918;-57
2023/10/05 12:43:43;;;;;;;5.70;2.83;;;18.20;94.90;;;;;;5073129;28;20433;-57
2023/10/05 12:46:11;;;;;;;7.83;2.73;;;18.30;94.70;;;;;;5073003;28;20459;-57
2023/10/05 12:48:39;;;;;;;6.97;2.70;;;18.40;94.30;;;;;;5072930;28;20535;-56
2023/10/05 12:51:07;;;;;;;5.83;2.80;;;18.50;94.00;;;;;;5072615;28;20509;-57
2023/10/05 12:53:36;;;;;;;6.07;3.20;;;18.50;93.80;;;;;;5072789;28;20527;-57
2023/10/05 12:56:03;;;;;;;7.10;3.00;;;18.40;93.90;;;;;;5072721;28;20442;-58
2023/10/05 12:58:32;;;;;;;7.10;3.10;;;18.30;94.00;;;;;;5072900;28;20469;-58
2023/10/05 13:01:07;;;;;;;7.77;2.83;;;18.40;94.00;;;;;;5072454;28;20531;-58
2023/10/05 13:03:35;;;;;;;5.50;2.53;;;18.50;93.70;;;;;;5072539;28;20481;-58
2023/10/05 13:06:06;;;;;;;6.00;2.43;;;18.60;93.30;;;;;;5072294;28;20896;-58
2023/10/05 13:08:32;;;;;;;4.53;2.67;;;18.60;93.20;;;;;;5072792;28;20435;-58